N654CW EDTQ-EDMK
Flight info
| Callsign | N654CW |
|---|---|
| Flight time | 1h 8m |
| Altitude | 17000 |
| Route | INGEK |
| Aircraft | TBM8/L-SBDGRWY/SB1 |
Departure
| Time | 2026-05-04 07:44 |
|---|---|
| Airport | Pattonville Airfield (EDTQ) |
Arrival
| Time | 2026-05-04 08:52 |
|---|---|
| Airport | Kempten-Durach Airfield (EDMK) |
| Time | Latitude | Longitude | Altitude | Speed | Heading |
|---|---|---|---|---|---|
| 2026-05-04 07:40 | 48.53372 | 9.44400 | 2292 ft | 0 kts | 31° |
| 2026-05-04 07:42 | 48.53378 | 9.44407 | 2297 ft | 3 kts | 41° |
| 2026-05-04 07:42 | 48.53407 | 9.44398 | 2288 ft | 1 kts | 297° |
| 2026-05-04 07:42 | 48.53408 | 9.44397 | 2288 ft | 0 kts | 297° |
| 2026-05-04 07:43 | 48.53409 | 9.44392 | 2287 ft | 0 kts | 297° |
| 2026-05-04 07:43 | 48.53465 | 9.44232 | 2282 ft | 47 kts | 295° |
| 2026-05-04 07:44 | 48.53663 | 9.43535 | 2378 ft | 91 kts | 288° |
| 2026-05-04 07:44 | 48.53959 | 9.42517 | 2633 ft | 113 kts | 289° |
| 2026-05-04 07:44 | 48.54293 | 9.41368 | 3114 ft | 125 kts | 290° |
| 2026-05-04 07:44 | 48.54670 | 9.40112 | 3570 ft | 137 kts | 289° |
| 2026-05-04 07:45 | 48.55039 | 9.38827 | 4202 ft | 132 kts | 290° |
| 2026-05-04 07:45 | 48.55434 | 9.37522 | 4680 ft | 145 kts | 291° |
| 2026-05-04 07:45 | 48.55882 | 9.36018 | 4900 ft | 169 kts | 290° |
| 2026-05-04 07:45 | 48.56384 | 9.34273 | 5001 ft | 190 kts | 290° |
| 2026-05-04 07:46 | 48.56909 | 9.32399 | 5011 ft | 201 kts | 290° |
| 2026-05-04 07:46 | 48.57455 | 9.30412 | 5005 ft | 207 kts | 290° |
| 2026-05-04 07:46 | 48.58004 | 9.28387 | 5011 ft | 210 kts | 289° |
| 2026-05-04 07:46 | 48.58556 | 9.26367 | 5013 ft | 202 kts | 290° |
| 2026-05-04 07:47 | 48.59084 | 9.24464 | 5013 ft | 193 kts | 290° |
| 2026-05-04 07:47 | 48.59910 | 9.22934 | 4998 ft | 195 kts | 330° |
| 2026-05-04 07:47 | 48.61199 | 9.22309 | 5024 ft | 194 kts | 342° |
| 2026-05-04 07:49 | 48.70553 | 9.20166 | 5015 ft | 195 kts | 349° |
| 2026-05-04 07:49 | 48.71888 | 9.19809 | 5026 ft | 195 kts | 347° |
| 2026-05-04 07:49 | 48.73220 | 9.19423 | 5017 ft | 194 kts | 347° |
| 2026-05-04 07:50 | 48.74557 | 9.19124 | 5000 ft | 195 kts | 356° |
| 2026-05-04 07:50 | 48.75917 | 9.19145 | 4997 ft | 194 kts | 3° |
| 2026-05-04 07:50 | 48.77077 | 9.20000 | 4988 ft | 187 kts | 43° |
| 2026-05-04 07:50 | 48.78007 | 9.21319 | 4824 ft | 172 kts | 45° |
| 2026-05-04 07:51 | 48.78835 | 9.22507 | 4580 ft | 157 kts | 38° |
| 2026-05-04 07:51 | 48.79873 | 9.22783 | 4354 ft | 159 kts | 340° |
| 2026-05-04 07:51 | 48.80864 | 9.21953 | 4152 ft | 170 kts | 309° |
| 2026-05-04 07:51 | 48.81659 | 9.20564 | 3956 ft | 178 kts | 308° |
| 2026-05-04 07:52 | 48.82479 | 9.19135 | 3758 ft | 181 kts | 309° |
| 2026-05-04 07:52 | 48.83306 | 9.17718 | 3538 ft | 181 kts | 310° |
| 2026-05-04 07:52 | 48.84203 | 9.16366 | 3314 ft | 183 kts | 324° |
| 2026-05-04 07:52 | 48.85426 | 9.15933 | 3187 ft | 182 kts | 2° |
| 2026-05-04 07:53 | 48.86628 | 9.16504 | 3169 ft | 178 kts | 23° |
| 2026-05-04 07:54 | 48.87150 | 9.24961 | 2037 ft | 102 kts | 102° |
| 2026-05-04 07:55 | 48.86824 | 9.25799 | 1731 ft | 92 kts | 158° |
| 2026-05-04 07:55 | 48.86271 | 9.25545 | 1479 ft | 84 kts | 230° |
| 2026-05-04 07:55 | 48.85982 | 9.24828 | 1225 ft | 84 kts | 260° |
| 2026-05-04 07:55 | 48.86171 | 9.23884 | 1057 ft | 102 kts | 288° |
| 2026-05-04 07:56 | 48.86343 | 9.22954 | 910 ft | 78 kts | 282° |
| 2026-05-04 07:56 | 48.86447 | 9.22315 | 925 ft | 45 kts | 283° |
| 2026-05-04 07:56 | 48.86484 | 9.22071 | 932 ft | 13 kts | 281° |
| 2026-05-04 07:56 | 48.86523 | 9.22051 | 931 ft | 12 kts | 48° |
| 2026-05-04 07:57 | 48.86520 | 9.22177 | 931 ft | 5 kts | 101° |
| 2026-05-04 07:57 | 48.86486 | 9.22263 | 928 ft | 15 kts | 130° |
| 2026-05-04 07:57 | 48.86469 | 9.22344 | 927 ft | 7 kts | 150° |
| 2026-05-04 07:57 | 48.86471 | 9.22289 | 925 ft | 5 kts | 291° |
| 2026-05-04 07:58 | 48.86496 | 9.22158 | 929 ft | 8 kts | 294° |
| 2026-05-04 07:58 | 48.86529 | 9.22095 | 933 ft | 6 kts | 315° |
| 2026-05-04 07:58 | 48.86540 | 9.22073 | 932 ft | 0 kts | 287° |
| 2026-05-04 08:19 | 48.86535 | 9.22061 | 934 ft | 4 kts | 199° |
| 2026-05-04 08:19 | 48.86512 | 9.22037 | 934 ft | 0 kts | 257° |
| 2026-05-04 08:20 | 48.86501 | 9.21977 | 929 ft | 18 kts | 251° |
| 2026-05-04 08:20 | 48.86512 | 9.21938 | 932 ft | 2 kts | 103° |
| 2026-05-04 08:20 | 48.86511 | 9.21941 | 932 ft | 2 kts | 110° |
| 2026-05-04 08:20 | 48.86496 | 9.22002 | 931 ft | 9 kts | 104° |
| 2026-05-04 08:21 | 48.86444 | 9.22324 | 923 ft | 59 kts | 103° |
| 2026-05-04 08:21 | 48.86315 | 9.23171 | 963 ft | 98 kts | 98° |
| 2026-05-04 08:21 | 48.86719 | 9.23857 | 1209 ft | 117 kts | 355° |
| 2026-05-04 08:21 | 48.87461 | 9.23212 | 1482 ft | 134 kts | 304° |
| 2026-05-04 08:22 | 48.87572 | 9.21834 | 1899 ft | 135 kts | 246° |
| 2026-05-04 08:22 | 48.86905 | 9.20911 | 2380 ft | 132 kts | 196° |
| 2026-05-04 08:24 | 48.81661 | 9.26605 | 5824 ft | 139 kts | 152° |
| 2026-05-04 08:24 | 48.80821 | 9.27356 | 6271 ft | 141 kts | 152° |
| 2026-05-04 08:24 | 48.79961 | 9.28109 | 6717 ft | 143 kts | 152° |
| 2026-05-04 08:24 | 48.79094 | 9.28855 | 7131 ft | 143 kts | 152° |
| 2026-05-04 08:25 | 48.78233 | 9.29606 | 7562 ft | 142 kts | 152° |
| 2026-05-04 08:25 | 48.77384 | 9.30342 | 7999 ft | 142 kts | 152° |
| 2026-05-04 08:25 | 48.76529 | 9.31087 | 8441 ft | 141 kts | 152° |
| 2026-05-04 08:25 | 48.75679 | 9.31827 | 8885 ft | 140 kts | 152° |
| 2026-05-04 08:26 | 48.74829 | 9.32559 | 9335 ft | 140 kts | 153° |
| 2026-05-04 08:27 | 48.67634 | 9.38715 | 10547 ft | 218 kts | 152° |
| 2026-05-04 08:28 | 48.66312 | 9.39868 | 10544 ft | 225 kts | 152° |
| 2026-05-04 08:28 | 48.64941 | 9.41062 | 10541 ft | 229 kts | 152° |
| 2026-05-04 08:28 | 48.63548 | 9.42280 | 10542 ft | 232 kts | 152° |
| 2026-05-04 08:28 | 48.62135 | 9.43496 | 10540 ft | 234 kts | 152° |
| 2026-05-04 08:29 | 48.60716 | 9.44722 | 10525 ft | 235 kts | 152° |
| 2026-05-04 08:29 | 48.59291 | 9.45951 | 10527 ft | 236 kts | 152° |
| 2026-05-04 08:29 | 48.57863 | 9.47181 | 10524 ft | 236 kts | 152° |
| 2026-05-04 08:31 | 48.47873 | 9.55770 | 10528 ft | 236 kts | 153° |
| 2026-05-04 08:33 | 48.37861 | 9.64344 | 10546 ft | 237 kts | 152° |
| 2026-05-04 08:33 | 48.36431 | 9.65570 | 10541 ft | 237 kts | 153° |
| 2026-05-04 08:35 | 48.26412 | 9.74086 | 10553 ft | 237 kts | 153° |
| 2026-05-04 08:35 | 48.24975 | 9.75305 | 10551 ft | 237 kts | 152° |
| 2026-05-04 08:35 | 48.23545 | 9.76528 | 10552 ft | 237 kts | 152° |
| 2026-05-04 08:35 | 48.22127 | 9.77795 | 10546 ft | 237 kts | 150° |
| 2026-05-04 08:37 | 48.14165 | 9.86346 | 10553 ft | 236 kts | 148° |
| 2026-05-04 08:37 | 48.12826 | 9.87781 | 10554 ft | 237 kts | 148° |
| 2026-05-04 08:37 | 48.11484 | 9.89215 | 10554 ft | 237 kts | 148° |
| 2026-05-04 08:38 | 48.10141 | 9.90653 | 10551 ft | 237 kts | 148° |
| 2026-05-04 08:38 | 48.08793 | 9.92080 | 10545 ft | 237 kts | 148° |
| 2026-05-04 08:38 | 48.07442 | 9.93512 | 10555 ft | 237 kts | 148° |
| 2026-05-04 08:40 | 47.98047 | 10.03501 | 10329 ft | 228 kts | 149° |
| 2026-05-04 08:40 | 47.96806 | 10.04744 | 10048 ft | 209 kts | 150° |
| 2026-05-04 08:40 | 47.95650 | 10.05965 | 9733 ft | 198 kts | 148° |
| 2026-05-04 08:41 | 47.94559 | 10.07169 | 9409 ft | 193 kts | 147° |
| 2026-05-04 08:41 | 47.93472 | 10.08347 | 9090 ft | 193 kts | 147° |
| 2026-05-04 08:41 | 47.92376 | 10.09517 | 8796 ft | 194 kts | 147° |
| 2026-05-04 08:41 | 47.91273 | 10.10682 | 8507 ft | 194 kts | 147° |
| 2026-05-04 08:42 | 47.90184 | 10.11833 | 8214 ft | 194 kts | 147° |
| 2026-05-04 08:42 | 47.89083 | 10.12999 | 7929 ft | 194 kts | 146° |
| 2026-05-04 08:42 | 47.87982 | 10.14163 | 7650 ft | 194 kts | 146° |
| 2026-05-04 08:42 | 47.86882 | 10.15320 | 7352 ft | 193 kts | 146° |
| 2026-05-04 08:43 | 47.85786 | 10.16479 | 7048 ft | 193 kts | 146° |
| 2026-05-04 08:43 | 47.84692 | 10.17637 | 6752 ft | 192 kts | 145° |
| 2026-05-04 08:43 | 47.83599 | 10.18788 | 6454 ft | 192 kts | 144° |
| 2026-05-04 08:43 | 47.82520 | 10.19918 | 6163 ft | 192 kts | 143° |
| 2026-05-04 08:44 | 47.81438 | 10.21056 | 5851 ft | 189 kts | 142° |
| 2026-05-04 08:44 | 47.80321 | 10.22059 | 5547 ft | 189 kts | 159° |
| 2026-05-04 08:46 | 47.71371 | 10.26463 | 3871 ft | 199 kts | 156° |
| 2026-05-04 08:46 | 47.70504 | 10.26952 | 3847 ft | 195 kts | 157° |
| 2026-05-04 08:46 | 47.69436 | 10.28019 | 3834 ft | 185 kts | 123° |
| 2026-05-04 08:46 | 47.69241 | 10.29832 | 3673 ft | 182 kts | 75° |
| 2026-05-04 08:47 | 47.69636 | 10.31550 | 3867 ft | 172 kts | 70° |
| 2026-05-04 08:47 | 47.70067 | 10.33190 | 3804 ft | 165 kts | 70° |
| 2026-05-04 08:47 | 47.70387 | 10.34761 | 3533 ft | 152 kts | 79° |
| 2026-05-04 08:47 | 47.70538 | 10.36177 | 3613 ft | 130 kts | 79° |
| 2026-05-04 08:48 | 47.70693 | 10.37497 | 3596 ft | 129 kts | 77° |
| 2026-05-04 08:48 | 47.70940 | 10.38821 | 3539 ft | 135 kts | 68° |
| 2026-05-04 08:48 | 47.71663 | 10.39689 | 3491 ft | 146 kts | 11° |
| 2026-05-04 08:48 | 47.72578 | 10.39107 | 3457 ft | 160 kts | 310° |
| 2026-05-04 08:49 | 47.73030 | 10.37615 | 3322 ft | 156 kts | 276° |
| 2026-05-04 08:50 | 47.67879 | 10.37713 | 3250 ft | 132 kts | 176° |
| 2026-05-04 08:50 | 47.67159 | 10.37049 | 3230 ft | 131 kts | 249° |
| 2026-05-04 08:51 | 47.67044 | 10.35773 | 3305 ft | 104 kts | 267° |
| 2026-05-04 08:51 | 47.67020 | 10.34768 | 3125 ft | 92 kts | 278° |
| 2026-05-04 08:51 | 47.67408 | 10.34143 | 2855 ft | 88 kts | 351° |
| 2026-05-04 08:51 | 47.68024 | 10.34125 | 2621 ft | 91 kts | 359° |
| 2026-05-04 08:52 | 47.68657 | 10.33997 | 2393 ft | 92 kts | 347° |
| 2026-05-04 08:52 | 47.69202 | 10.33804 | 2358 ft | 59 kts | 348° |
| 2026-05-04 08:52 | 47.69397 | 10.33805 | 2356 ft | 14 kts | 82° |
| 2026-05-04 08:52 | 47.69324 | 10.33866 | 2356 ft | 12 kts | 164° |
| 2026-05-04 08:53 | 47.69302 | 10.33903 | 2354 ft | 0 kts | 72° |
| 2026-05-04 08:54 | 47.69336 | 10.34076 | 2357 ft | 26 kts | 20° |
| 2026-05-04 08:55 | 47.69384 | 10.34266 | 2363 ft | 378 kts | 59° |
| 2026-05-04 08:55 | 47.69608 | 10.34171 | 2349 ft | 0 kts | 146° |
| 2026-05-04 08:55 | 47.69500 | 10.34198 | 2351 ft | 0 kts | 256° |
| 2026-05-04 08:55 | 47.69499 | 10.34191 | 2351 ft | 0 kts | 256° |